Owensboro Daviess County Airport Owensboro US
ICAO: KOWB
IATA: OWB
Category: Medium
Scheduled Services: Yes

Elevation: 407 ft
TransAlt. 18000 ft.

Airport Communications:
EVANSVILLE APP/DEP:126.4
CTAF:120.7
GND:121.7
LOUISVILLE RDO:108.6
TWR:120.7
UNICOM:122.95

KOWB Zoom In..

Runways:

(A) RW 06 length 5000 ft width 100 ft
---- / hdg 56

(B) RW 18 length 8000 ft width 150 ft
---- / hdg 182

(C) RW 24 length 5000 ft width 100 ft
---- / hdg 236

(D) RW 36 length 8000 ft width 150 ft
ILS 111.50 / hdg 2

Location; KOWB
Day. 25 / Time. 11.56 Zulu
* Altimeter: 30.01
* Temperature: 11° c. 51.8°f.
* Wind from: 300° Speed 05 kn.
Dewpoint: 11° c.
Visibility: 1/8 Statute Miles.
Conditions: Fog.

KOWB 251156Z 30005KT 1/8SM FG VV002 11/11 A3001 RMK AO2 SLP175 70003 T01110106 10122 20111 53016


Wind From 300°
Speed 05 kn.

  YouTube Music Video
 
jpsmedia.com for Web Design  worldairports.se 2018   terms of use